createdAt,value
2018-12-07T00:01:27.774Z,10.30
2018-12-07T00:03:55.175Z,11.53
2018-12-07T00:06:22.446Z,10.80
2018-12-07T00:08:49.816Z,9.60
2018-12-07T00:11:17.166Z,6.93
2018-12-07T00:13:44.602Z,8.07
2018-12-07T00:16:11.913Z,10.10
2018-12-07T00:18:39.382Z,7.50
2018-12-07T00:21:06.794Z,10.40
2018-12-07T00:23:34.153Z,6.37
2018-12-07T00:26:01.458Z,5.37
2018-12-07T00:28:28.806Z,4.00
2018-12-07T00:30:56.142Z,5.83
2018-12-07T00:33:23.463Z,4.47
2018-12-07T00:35:51.108Z,5.23
2018-12-07T00:38:18.433Z,3.80
2018-12-07T00:40:46.059Z,4.80
2018-12-07T00:43:13.359Z,3.10
2018-12-07T00:45:40.672Z,4.90
2018-12-07T00:48:08.089Z,4.47
2018-12-07T00:50:35.390Z,3.27
2018-12-07T00:53:02.724Z,3.67
2018-12-07T00:55:37.017Z,3.77
2018-12-07T00:58:04.470Z,4.30
2018-12-07T01:00:31.795Z,3.40
2018-12-07T01:02:59.210Z,3.70
2018-12-07T01:05:26.542Z,3.40
2018-12-07T01:07:53.831Z,3.63
2018-12-07T01:10:21.153Z,3.40
2018-12-07T01:12:48.703Z,3.63
2018-12-07T01:15:16.006Z,4.30
2018-12-07T01:17:43.448Z,3.97
2018-12-07T01:20:10.760Z,4.50
2018-12-07T01:22:38.078Z,4.13
2018-12-07T01:25:05.552Z,3.80
2018-12-07T01:29:02.479Z,4.07
2018-12-07T01:31:29.792Z,6.50
2018-12-07T01:33:57.119Z,5.77
2018-12-07T01:36:24.670Z,4.63
2018-12-07T01:38:51.992Z,5.27
2018-12-07T01:41:19.319Z,4.40
2018-12-07T01:43:46.679Z,5.27
2018-12-07T01:46:14.006Z,5.63
2018-12-07T01:48:41.343Z,5.83
2018-12-07T01:51:08.837Z,5.90
2018-12-07T01:53:37.320Z,6.43
2018-12-07T01:56:04.784Z,5.40
2018-12-07T01:58:32.171Z,5.87
2018-12-07T02:00:59.499Z,6.20
2018-12-07T02:03:26.821Z,6.50
2018-12-07T02:05:54.192Z,7.30
2018-12-07T02:08:21.499Z,6.93
2018-12-07T02:10:48.844Z,7.70
2018-12-07T02:13:16.207Z,6.90
2018-12-07T02:15:43.655Z,6.50
2018-12-07T02:18:10.997Z,6.40
2018-12-07T02:20:38.340Z,6.80
2018-12-07T02:23:05.667Z,6.47
2018-12-07T02:25:32.999Z,6.67
2018-12-07T02:28:00.475Z,7.20
2018-12-07T02:30:28.201Z,6.53
2018-12-07T02:32:55.532Z,6.90
2018-12-07T02:35:22.944Z,6.60
2018-12-07T02:37:50.541Z,5.80
2018-12-07T02:40:17.891Z,6.70
2018-12-07T02:42:45.231Z,6.90
2018-12-07T02:45:12.534Z,7.03
2018-12-07T02:47:40.484Z,7.03
2018-12-07T02:50:09.029Z,6.80
2018-12-07T02:52:36.336Z,6.13
2018-12-07T02:55:04.772Z,7.23
2018-12-07T02:57:32.085Z,7.07
2018-12-07T02:59:59.392Z,7.70
2018-12-07T03:02:26.760Z,7.10
2018-12-07T03:04:54.074Z,8.00
2018-12-07T03:07:21.414Z,7.57
2018-12-07T03:09:48.765Z,6.77
2018-12-07T03:12:16.082Z,8.33
2018-12-07T03:14:43.399Z,8.40
2018-12-07T03:17:11.171Z,9.13
2018-12-07T03:19:38.539Z,9.77
2018-12-07T03:22:05.969Z,10.37
2018-12-07T03:24:33.295Z,10.80
2018-12-07T03:27:00.599Z,10.60
2018-12-07T03:29:27.909Z,9.97
2018-12-07T03:31:55.252Z,12.20
2018-12-07T03:34:22.582Z,10.50
2018-12-07T03:36:49.888Z,12.33
2018-12-07T03:39:17.221Z,13.70
2018-12-07T03:41:45.971Z,12.77
2018-12-07T03:44:13.293Z,9.47
2018-12-07T03:46:40.629Z,12.17
2018-12-07T03:49:07.942Z,15.13
2018-12-07T03:51:35.260Z,12.23
2018-12-07T03:54:02.635Z,10.10
2018-12-07T03:56:29.954Z,11.23
2018-12-07T03:59:01.251Z,10.87
2018-12-07T04:01:28.587Z,8.73
2018-12-07T04:03:55.907Z,10.37
2018-12-07T04:06:25.251Z,10.57
2018-12-07T04:08:52.746Z,9.77
2018-12-07T04:11:20.078Z,9.60
2018-12-07T04:13:47.432Z,10.80
2018-12-07T04:16:15.026Z,9.87
2018-12-07T04:18:42.338Z,9.00
2018-12-07T04:21:09.640Z,7.87
2018-12-07T04:23:36.975Z,9.10
2018-12-07T04:26:04.296Z,9.60
2018-12-07T04:28:33.647Z,8.60
2018-12-07T04:31:01.045Z,7.30
2018-12-07T04:33:28.463Z,8.68
2018-12-07T04:35:55.784Z,6.83
2018-12-07T04:38:23.185Z,7.13
2018-12-07T04:40:50.523Z,6.80
2018-12-07T04:43:17.822Z,5.90
2018-12-07T04:45:45.149Z,5.70
2018-12-07T04:48:12.565Z,4.97
2018-12-07T04:50:40.010Z,6.33
2018-12-07T04:53:07.317Z,4.77
2018-12-07T04:55:34.742Z,4.10
2018-12-07T04:58:02.191Z,4.60
2018-12-07T05:00:29.574Z,4.80
2018-12-07T05:02:56.995Z,5.03
2018-12-07T05:05:24.734Z,4.07
2018-12-07T05:07:52.023Z,4.30
2018-12-07T05:10:19.338Z,5.70
2018-12-07T05:12:46.627Z,4.00
2018-12-07T05:15:13.938Z,4.70
2018-12-07T05:17:41.222Z,3.73
2018-12-07T05:20:08.890Z,2.97
2018-12-07T05:22:36.194Z,4.30
2018-12-07T05:25:04.111Z,3.70
2018-12-07T05:27:31.443Z,3.83
2018-12-07T05:29:58.834Z,3.90
2018-12-07T05:32:26.139Z,4.00
2018-12-07T05:34:53.435Z,3.47
2018-12-07T05:37:20.747Z,3.80
2018-12-07T05:39:48.051Z,3.83
2018-12-07T05:42:15.375Z,3.40
2018-12-07T05:44:42.671Z,4.40
2018-12-07T05:47:10.099Z,4.23
2018-12-07T05:49:37.379Z,5.60
2018-12-07T05:52:04.817Z,3.77
2018-12-07T05:54:32.143Z,3.80
2018-12-07T05:56:59.455Z,4.00
2018-12-07T05:59:26.757Z,4.07
2018-12-07T06:01:54.076Z,3.73
2018-12-07T06:04:21.363Z,2.93
2018-12-07T06:06:48.662Z,2.93
2018-12-07T06:09:15.995Z,3.77
2018-12-07T06:11:43.284Z,3.87
2018-12-07T06:14:10.604Z,4.20
2018-12-07T06:16:37.923Z,3.03
2018-12-07T06:19:05.242Z,3.60
2018-12-07T06:21:32.535Z,4.00
2018-12-07T06:23:59.838Z,3.77
2018-12-07T06:26:27.714Z,6.10
2018-12-07T06:28:55.043Z,5.33
2018-12-07T06:31:22.487Z,4.73
2018-12-07T06:33:49.811Z,7.20
2018-12-07T06:36:17.139Z,6.93
2018-12-07T06:38:44.468Z,6.43
2018-12-07T06:41:11.802Z,8.60
2018-12-07T06:43:39.126Z,7.70
2018-12-07T06:46:06.511Z,9.63
2018-12-07T06:48:33.832Z,8.53
2018-12-07T06:51:01.171Z,7.80
2018-12-07T06:53:28.524Z,7.87
2018-12-07T06:55:55.839Z,7.30
2018-12-07T06:58:23.155Z,6.87
2018-12-07T07:00:50.475Z,8.03
2018-12-07T07:03:18.064Z,8.63
2018-12-07T07:05:45.367Z,8.07
2018-12-07T07:08:12.695Z,7.57
2018-12-07T07:10:40.063Z,9.53
2018-12-07T07:13:07.362Z,11.40
2018-12-07T07:15:34.664Z,9.57
2018-12-07T07:18:02.223Z,11.13
2018-12-07T07:20:29.651Z,10.40
2018-12-07T07:22:56.966Z,9.90
2018-12-07T07:25:24.303Z,8.40
2018-12-07T07:27:51.603Z,9.30
2018-12-07T07:30:19.326Z,9.97
2018-12-07T07:32:46.884Z,13.87
2018-12-07T07:35:14.204Z,11.67
2018-12-07T07:37:41.532Z,12.40
2018-12-07T07:40:08.852Z,10.77
2018-12-07T07:42:36.182Z,13.80
2018-12-07T07:45:04.091Z,11.73
2018-12-07T07:47:31.484Z,11.17
2018-12-07T07:49:58.823Z,9.30
2018-12-07T07:52:26.230Z,8.03
2018-12-07T07:54:53.681Z,9.83
2018-12-07T07:57:21.015Z,7.80
2018-12-07T07:59:48.360Z,9.33
2018-12-07T08:02:15.691Z,7.60
2018-12-07T08:04:43.050Z,7.80
2018-12-07T08:07:10.367Z,7.70
2018-12-07T08:09:37.746Z,7.37
2018-12-07T08:12:05.076Z,5.90
2018-12-07T08:14:32.404Z,8.00
2018-12-07T08:16:59.723Z,6.00
2018-12-07T08:19:27.066Z,7.83
2018-12-07T08:21:54.387Z,7.97
2018-12-07T08:24:21.742Z,7.93
2018-12-07T08:26:49.059Z,7.60
2018-12-07T08:29:16.511Z,4.77
2018-12-07T08:31:44.275Z,7.60
2018-12-07T08:34:11.562Z,8.13
2018-12-07T08:36:38.874Z,9.60
2018-12-07T08:39:09.374Z,7.50
2018-12-07T08:41:36.900Z,9.80
2018-12-07T08:44:04.427Z,6.57
2018-12-07T08:46:31.767Z,5.63
2018-12-07T08:48:59.074Z,6.00
2018-12-07T08:51:26.443Z,6.97
2018-12-07T08:53:53.795Z,5.10
2018-12-07T08:56:21.223Z,6.17
2018-12-07T08:58:48.570Z,6.00
2018-12-07T09:01:15.954Z,6.37
2018-12-07T09:03:43.377Z,5.37
2018-12-07T09:06:10.811Z,5.10
2018-12-07T09:08:38.395Z,5.20
2018-12-07T09:11:05.712Z,6.77
2018-12-07T09:13:33.070Z,6.50
2018-12-07T09:16:00.435Z,5.00
2018-12-07T09:18:27.751Z,6.37
2018-12-07T09:20:55.072Z,10.17
2018-12-07T09:23:22.428Z,4.47
2018-12-07T09:25:49.743Z,5.10
2018-12-07T09:28:17.052Z,4.57
2018-12-07T09:30:45.600Z,4.30
2018-12-07T09:33:12.919Z,5.47
2018-12-07T09:35:40.230Z,3.33
2018-12-07T09:38:13.116Z,3.33
2018-12-07T09:40:37.050Z,3.63
2018-12-07T09:43:04.366Z,3.37
2018-12-07T09:45:32.872Z,5.60
2018-12-07T09:48:00.186Z,5.77
2018-12-07T09:50:27.516Z,4.50
2018-12-07T09:52:54.843Z,6.60
2018-12-07T09:55:22.156Z,7.60
2018-12-07T09:57:49.470Z,4.67
2018-12-07T10:00:16.935Z,6.23
2018-12-07T10:02:44.235Z,6.30
2018-12-07T10:05:11.623Z,8.73
2018-12-07T10:07:39.011Z,4.87
2018-12-07T10:10:06.459Z,6.53
2018-12-07T10:12:33.768Z,7.53
2018-12-07T10:15:01.113Z,10.13
2018-12-07T10:17:29.993Z,5.27
2018-12-07T10:19:57.610Z,6.23
2018-12-07T10:22:25.047Z,7.33
2018-12-07T10:24:52.369Z,8.23
2018-12-07T10:27:19.663Z,6.00
2018-12-07T10:29:47.119Z,7.20
2018-12-07T10:32:14.432Z,6.37
2018-12-07T10:34:41.750Z,5.87
2018-12-07T10:37:09.307Z,6.70
2018-12-07T10:39:36.628Z,6.73
2018-12-07T10:42:03.963Z,7.60
2018-12-07T10:44:31.323Z,8.23
2018-12-07T10:46:58.649Z,8.40
2018-12-07T10:49:26.007Z,5.57
2018-12-07T10:51:53.375Z,6.17
2018-12-07T10:54:20.680Z,5.63
2018-12-07T10:56:49.143Z,6.20
2018-12-07T10:59:16.587Z,4.40
2018-12-07T11:01:49.515Z,7.23
2018-12-07T11:04:22.496Z,9.93
2018-12-07T11:06:54.403Z,5.23
2018-12-07T11:10:30.331Z,5.37
2018-12-07T11:13:03.335Z,5.10
2018-12-07T11:15:36.310Z,3.43
2018-12-07T11:18:09.415Z,5.40
2018-12-07T11:20:42.728Z,7.37
2018-12-07T11:23:15.631Z,6.90
2018-12-07T11:25:48.475Z,4.70
2018-12-07T11:29:24.475Z,3.93
2018-12-07T11:31:57.486Z,3.80
2018-12-07T11:34:27.739Z,4.07
2018-12-07T11:36:55.063Z,6.20
2018-12-07T11:39:22.383Z,4.57
2018-12-07T11:41:49.718Z,4.13
2018-12-07T11:44:19.072Z,4.57
2018-12-07T11:46:46.655Z,6.17
2018-12-07T11:49:14.166Z,5.20
2018-12-07T11:51:41.512Z,5.43
2018-12-07T11:54:08.953Z,6.60
2018-12-07T11:56:36.270Z,6.37
2018-12-07T11:59:03.579Z,6.30
2018-12-07T12:01:30.922Z,4.33
2018-12-07T12:03:58.627Z,6.10
2018-12-07T12:06:25.936Z,5.07
2018-12-07T12:08:53.415Z,6.03
2018-12-07T12:11:22.759Z,5.53
2018-12-07T12:13:50.075Z,4.37
2018-12-07T12:16:18.036Z,7.77
2018-12-07T12:18:45.462Z,4.73
2018-12-07T12:21:12.890Z,3.50
2018-12-07T12:23:40.298Z,3.27
2018-12-07T12:26:07.591Z,5.43
2018-12-07T12:28:34.882Z,3.80
2018-12-07T12:31:02.369Z,3.73
2018-12-07T12:33:29.674Z,2.67
2018-12-07T12:35:56.988Z,4.33
2018-12-07T12:38:24.353Z,5.57
2018-12-07T12:40:51.659Z,8.27
2018-12-07T12:43:18.981Z,8.43
2018-12-07T12:45:46.531Z,4.20
2018-12-07T12:48:13.899Z,4.70
2018-12-07T12:50:41.329Z,2.87
2018-12-07T12:53:08.643Z,3.50
2018-12-07T12:55:36.099Z,2.83
2018-12-07T12:58:03.535Z,3.47
2018-12-07T13:00:30.979Z,2.10
2018-12-07T13:02:58.511Z,3.10
2018-12-07T13:05:26.093Z,3.90
2018-12-07T13:07:55.155Z,4.23
2018-12-07T13:10:22.815Z,2.73
2018-12-07T13:12:50.139Z,2.47
2018-12-07T13:15:17.674Z,4.67
2018-12-07T13:17:45.042Z,3.20
2018-12-07T13:20:12.380Z,3.10
2018-12-07T13:22:40.499Z,2.53
2018-12-07T13:25:07.959Z,2.63
2018-12-07T13:27:35.287Z,4.67
2018-12-07T13:30:03.158Z,3.00
2018-12-07T13:32:30.547Z,3.60
2018-12-07T13:34:57.866Z,4.53
2018-12-07T13:37:25.216Z,3.10
2018-12-07T13:39:52.699Z,5.47
2018-12-07T13:42:20.211Z,3.40
2018-12-07T13:44:47.889Z,2.97
2018-12-07T13:47:15.538Z,4.13
2018-12-07T13:50:05.822Z,3.33
2018-12-07T13:52:33.269Z,4.20
2018-12-07T13:55:00.704Z,6.40
2018-12-07T13:57:30.240Z,3.23
2018-12-07T13:59:57.971Z,4.57
2018-12-07T14:02:25.379Z,4.13
2018-12-07T14:04:53.121Z,6.27
2018-12-07T14:07:20.627Z,5.53
2018-12-07T14:09:48.187Z,3.93
2018-12-07T14:12:15.645Z,2.87
2018-12-07T14:14:43.276Z,3.27
2018-12-07T14:17:11.038Z,2.80
2018-12-07T14:19:38.831Z,4.83
2018-12-07T14:22:06.440Z,2.50
2018-12-07T14:24:34.185Z,3.20
2018-12-07T14:27:02.026Z,2.03
2018-12-07T14:29:29.811Z,3.60
2018-12-07T14:31:57.851Z,3.50
2018-12-07T14:34:25.472Z,2.60
2018-12-07T14:36:53.027Z,2.77
2018-12-07T14:39:20.751Z,3.40
2018-12-07T14:41:49.354Z,4.63
2018-12-07T14:44:17.671Z,3.50
2018-12-07T14:46:45.682Z,3.50
2018-12-07T14:49:13.917Z,2.90
2018-12-07T14:51:41.412Z,4.37
2018-12-07T14:54:08.912Z,3.07
2018-12-07T14:56:36.748Z,10.10
2018-12-07T14:59:04.320Z,4.00
2018-12-07T15:01:32.214Z,5.07
2018-12-07T15:03:59.774Z,15.57
2018-12-07T15:06:27.451Z,4.93
2018-12-07T15:08:54.914Z,4.60
2018-12-07T15:11:22.279Z,6.60
2018-12-07T15:13:49.672Z,6.40
2018-12-07T15:16:17.149Z,6.10
2018-12-07T15:18:45.892Z,5.30
2018-12-07T15:21:13.436Z,8.00
2018-12-07T15:23:41.055Z,8.17
2018-12-07T15:26:08.725Z,6.90
2018-12-07T15:28:36.249Z,7.43
2018-12-07T15:31:03.991Z,9.67
2018-12-07T15:33:31.691Z,7.07
2018-12-07T15:35:59.283Z,10.17
2018-12-07T15:38:27.918Z,14.73
2018-12-07T15:40:55.457Z,15.03
2018-12-07T15:43:23.097Z,11.13
2018-12-07T15:45:50.616Z,17.00
2018-12-07T15:48:18.776Z,14.13
2018-12-07T15:50:46.561Z,11.23
2018-12-07T15:53:14.343Z,11.23
2018-12-07T15:55:41.911Z,12.37
2018-12-07T15:58:09.554Z,12.27
2018-12-07T16:00:37.198Z,16.00
2018-12-07T16:03:04.723Z,12.23
2018-12-07T16:05:32.268Z,9.90
2018-12-07T16:07:59.773Z,12.07
2018-12-07T16:10:27.340Z,12.30
2018-12-07T16:12:54.895Z,14.20
2018-12-07T16:15:22.423Z,12.93
2018-12-07T16:17:49.893Z,15.70
2018-12-07T16:20:18.327Z,13.63
2018-12-07T16:22:45.741Z,11.50
2018-12-07T16:25:13.330Z,12.77
2018-12-07T16:27:40.942Z,16.03
2018-12-07T16:30:09.387Z,13.93
2018-12-07T16:32:37.235Z,16.57
2018-12-07T16:35:05.653Z,13.80
2018-12-07T16:37:33.131Z,15.33
2018-12-07T16:40:00.513Z,17.00
2018-12-07T16:42:27.968Z,15.50
2018-12-07T16:44:55.583Z,17.90
2018-12-07T16:47:23.022Z,15.43
2018-12-07T16:49:50.529Z,18.10
2018-12-07T16:52:18.094Z,16.93
2018-12-07T16:54:45.685Z,18.47
2018-12-07T16:57:13.271Z,15.47
2018-12-07T16:59:41.103Z,16.77
2018-12-07T17:02:08.687Z,14.80
2018-12-07T17:04:37.263Z,16.60
2018-12-07T17:07:04.931Z,14.83
2018-12-07T17:09:32.435Z,15.40
2018-12-07T17:11:59.908Z,14.90
2018-12-07T17:14:28.495Z,13.93
2018-12-07T17:16:56.000Z,15.60
2018-12-07T17:19:23.644Z,16.70
2018-12-07T17:21:51.025Z,14.50
2018-12-07T17:24:18.460Z,14.80
2018-12-07T17:26:46.145Z,17.60
2018-12-07T17:29:13.614Z,15.00
2018-12-07T17:31:41.398Z,15.63
2018-12-07T17:34:09.012Z,15.60
2018-12-07T17:36:36.766Z,14.73
2018-12-07T17:39:06.808Z,14.10
2018-12-07T17:41:34.812Z,13.33
2018-12-07T17:44:02.579Z,12.73
2018-12-07T17:46:30.410Z,16.83
2018-12-07T17:48:57.894Z,14.23
2018-12-07T17:51:25.267Z,15.17
2018-12-07T17:53:52.747Z,16.20
2018-12-07T17:56:20.419Z,15.47
2018-12-07T17:58:48.080Z,13.27
2018-12-07T18:01:15.467Z,12.00
2018-12-07T18:03:42.759Z,10.17
2018-12-07T18:06:10.217Z,13.83
2018-12-07T18:08:37.833Z,16.77
2018-12-07T18:11:05.206Z,11.53
2018-12-07T18:13:32.812Z,15.90
2018-12-07T18:16:00.286Z,12.03
2018-12-07T18:18:27.800Z,12.30
2018-12-07T18:20:55.542Z,18.50
2018-12-07T18:23:23.193Z,15.33
2018-12-07T18:25:50.738Z,14.87
2018-12-07T18:28:18.268Z,16.53
2018-12-07T18:30:45.767Z,17.70
2018-12-07T18:33:13.091Z,19.20
2018-12-07T18:35:40.418Z,18.73
2018-12-07T18:38:08.117Z,22.50
2018-12-07T18:40:35.896Z,19.27
2018-12-07T18:43:03.669Z,18.73
2018-12-07T18:45:31.117Z,20.77
2018-12-07T18:47:58.647Z,26.73
2018-12-07T18:50:28.320Z,18.30
2018-12-07T18:52:55.446Z,17.40
2018-12-07T18:55:23.000Z,21.53
2018-12-07T18:57:50.836Z,18.37
2018-12-07T19:00:18.384Z,22.20
2018-12-07T19:02:45.846Z,20.83
2018-12-07T19:05:14.640Z,21.50
2018-12-07T19:07:42.207Z,18.43
2018-12-07T19:10:09.911Z,19.83
2018-12-07T19:12:38.596Z,20.50
2018-12-07T19:15:07.300Z,22.07
2018-12-07T19:17:35.916Z,18.30
2018-12-07T19:20:04.319Z,20.30
2018-12-07T19:22:48.856Z,18.33
2018-12-07T19:25:16.365Z,19.73
2018-12-07T19:27:44.070Z,17.23
2018-12-07T19:30:14.729Z,19.33
2018-12-07T19:32:42.140Z,20.10
2018-12-07T19:35:09.997Z,15.70
2018-12-07T19:37:37.745Z,18.53
2018-12-07T19:40:05.908Z,16.57
2018-12-07T19:42:33.607Z,17.43
2018-12-07T19:45:01.424Z,20.60
2018-12-07T19:47:29.812Z,19.27
2018-12-07T19:49:57.289Z,15.63
2018-12-07T19:52:24.982Z,15.37
2018-12-07T19:54:52.417Z,17.27
2018-12-07T19:57:20.843Z,18.30
2018-12-07T19:59:48.438Z,17.33
2018-12-07T20:05:12.624Z,15.60
2018-12-07T20:07:40.051Z,21.23
2018-12-07T20:10:07.917Z,20.27
2018-12-07T20:12:35.607Z,20.00
2018-12-07T20:15:03.681Z,17.83
2018-12-07T20:17:31.755Z,15.30
2018-12-07T20:20:00.382Z,18.27
2018-12-07T20:22:27.783Z,14.65
2018-12-07T20:24:57.441Z,19.53
2018-12-07T20:27:26.280Z,15.23
2018-12-07T20:29:54.452Z,14.07
2018-12-07T20:32:22.243Z,15.23
2018-12-07T20:34:49.715Z,14.83
2018-12-07T20:37:17.367Z,10.33
2018-12-07T20:39:45.046Z,6.90
2018-12-07T20:42:12.471Z,7.25
2018-12-07T20:44:39.828Z,9.60
2018-12-07T20:47:07.487Z,4.03
2018-12-07T20:49:35.088Z,8.73
2018-12-07T20:52:02.747Z,8.83
2018-12-07T20:54:31.715Z,4.40
2018-12-07T20:56:59.418Z,5.93
2018-12-07T20:59:26.807Z,9.30
2018-12-07T21:01:56.472Z,3.00
2018-12-07T21:04:44.516Z,4.20
2018-12-07T21:08:31.443Z,8.80
2018-12-07T21:11:10.859Z,6.50
2018-12-07T21:14:22.066Z,4.30
2018-12-07T21:17:30.245Z,7.40
2018-12-07T21:20:03.468Z,9.60
2018-12-07T21:22:32.149Z,7.27
2018-12-07T21:25:00.066Z,11.80
2018-12-07T21:27:27.846Z,6.77
2018-12-07T21:30:47.666Z,3.67
2018-12-07T21:33:17.893Z,6.80
2018-12-07T21:38:37.472Z,28.40
2018-12-07T21:41:04.929Z,13.30
2018-12-07T21:43:32.545Z,13.43
2018-12-07T21:46:00.261Z,17.63
2018-12-07T21:48:29.297Z,13.20
2018-12-07T21:51:39.883Z,9.10
2018-12-07T21:54:07.317Z,15.17
2018-12-07T21:56:34.699Z,12.23
2018-12-07T21:59:02.350Z,12.57
2018-12-07T22:01:30.202Z,26.87
2018-12-07T22:03:59.001Z,8.40
2018-12-07T22:06:26.749Z,18.20
2018-12-07T22:08:54.595Z,15.03
2018-12-07T22:11:22.093Z,8.57
2018-12-07T22:13:49.873Z,15.07
2018-12-07T22:16:17.444Z,11.10
2018-12-07T22:18:44.734Z,12.30
2018-12-07T22:21:12.575Z,16.30
2018-12-07T22:23:40.409Z,8.73
2018-12-07T22:26:09.149Z,17.30
2018-12-07T22:28:36.758Z,12.07
2018-12-07T22:31:05.062Z,13.23
2018-12-07T22:33:33.193Z,16.60
2018-12-07T22:36:00.853Z,11.43
2018-12-07T22:38:32.302Z,8.93
2018-12-07T22:41:01.952Z,11.47
2018-12-07T22:43:29.358Z,19.60
2018-12-07T22:45:56.875Z,7.17
2018-12-07T22:48:24.386Z,11.27
2018-12-07T22:50:51.867Z,9.37
2018-12-07T22:53:19.203Z,9.53
2018-12-07T22:55:46.534Z,8.23
2018-12-07T22:58:13.839Z,13.13
2018-12-07T23:00:43.427Z,11.10
2018-12-07T23:03:12.775Z,10.80
2018-12-07T23:05:40.731Z,15.33
2018-12-07T23:08:08.083Z,14.53
2018-12-07T23:10:35.403Z,16.00
2018-12-07T23:13:02.943Z,14.80
2018-12-07T23:15:30.865Z,11.73
2018-12-07T23:17:58.163Z,22.00
2018-12-07T23:20:26.557Z,11.30
2018-12-07T23:22:54.011Z,7.90
2018-12-07T23:25:21.331Z,14.53
2018-12-07T23:27:48.715Z,17.47
2018-12-07T23:30:16.214Z,8.83
2018-12-07T23:35:41.427Z,18.57
2018-12-07T23:38:08.835Z,10.07
2018-12-07T23:40:36.155Z,20.10
2018-12-07T23:43:08.282Z,17.73
2018-12-07T23:45:36.368Z,14.17
2018-12-07T23:48:03.816Z,19.00
2018-12-07T23:50:31.167Z,19.33
2018-12-07T23:52:58.510Z,11.40
2018-12-07T23:55:25.831Z,7.53
2018-12-07T23:57:53.183Z,17.63
